Time;durP1;ratioP1;P1;durP2;ratioP2;P2;SDS_P1;SDS_P2;PMS_P1;PMS_P2;Temp;Humidity;BMP_temperature;BMP_pressure;BME280_temperature;BME280_humidity;BME280_pressure;Samples;Min_cycle;Max_cycle;Signal;HPM_P1;HPM_P2
2023/04/15 00:02:17;;;;;;;9.88;4.72;;;;;;;7.22;100.00;100586.88;5234345;28;20041;-66
2023/04/15 00:04:48;;;;;;;11.60;4.50;;;;;;;7.20;100.00;100594.09;5229061;28;20112;-67
2023/04/15 00:07:20;;;;;;;10.27;4.20;;;;;;;7.14;100.00;100589.22;5226201;28;20415;-66
2023/04/15 00:09:54;;;;;;;10.50;4.78;;;;;;;7.10;100.00;100591.22;5225583;28;20029;-66
2023/04/15 00:12:26;;;;;;;6.63;4.03;;;;;;;7.09;100.00;100586.84;5233449;28;20040;-66
2023/04/15 00:14:58;;;;;;;11.57;5.13;;;;;;;7.15;100.00;100583.81;5237702;28;20029;-67
2023/04/15 00:17:29;;;;;;;8.18;4.40;;;;;;;7.04;100.00;100588.97;5227494;28;20025;-66
2023/04/15 00:20:01;;;;;;;6.43;4.20;;;;;;;7.05;100.00;100583.53;5227276;28;20108;-67
2023/04/15 00:22:33;;;;;;;8.15;4.57;;;;;;;7.03;100.00;100577.50;5224534;28;20038;-67
2023/04/15 00:25:04;;;;;;;9.15;4.65;;;;;;;6.99;100.00;100583.94;5226788;28;20041;-66
2023/04/15 00:27:36;;;;;;;12.05;4.95;;;;;;;6.97;100.00;100590.31;5226347;28;20027;-66
2023/04/15 00:30:08;;;;;;;13.27;5.15;;;;;;;6.93;100.00;100587.00;5229023;28;20732;-66
2023/04/15 00:32:41;;;;;;;9.80;4.97;;;;;;;6.89;100.00;100582.88;5226544;28;20060;-67
2023/04/15 00:35:12;;;;;;;11.73;5.35;;;;;;;6.92;100.00;100581.81;5224050;28;20519;-66
2023/04/15 00:37:44;;;;;;;9.40;5.53;;;;;;;6.91;100.00;100594.22;5226228;28;20034;-66
2023/04/15 00:40:17;;;;;;;10.43;5.75;;;;;;;6.92;100.00;100592.41;5227134;28;20484;-66
2023/04/15 00:42:49;;;;;;;9.77;5.43;;;;;;;6.88;100.00;100586.44;5224871;28;20490;-66
2023/04/15 00:45:21;;;;;;;12.45;5.72;;;;;;;6.94;100.00;100582.56;5227018;28;20041;-66
2023/04/15 00:47:52;;;;;;;8.30;5.25;;;;;;;6.83;100.00;100586.75;5225225;28;21193;-66
2023/04/15 00:50:24;;;;;;;10.88;6.20;;;;;;;6.77;100.00;100589.81;5225523;28;20029;-66
2023/04/15 00:52:55;;;;;;;13.23;6.68;;;;;;;6.73;100.00;100595.41;5223718;28;20439;-66
2023/04/15 00:55:27;;;;;;;12.65;6.72;;;;;;;6.79;100.00;100589.72;5225883;28;20518;-66
2023/04/15 00:57:58;;;;;;;9.88;6.00;;;;;;;6.70;100.00;100590.31;5225120;28;20512;-66
2023/04/15 01:00:30;;;;;;;11.63;6.40;;;;;;;6.62;100.00;100594.31;5230451;28;20052;-66
2023/04/15 01:03:01;;;;;;;10.07;6.40;;;;;;;6.54;100.00;100588.66;5224652;28;20395;-67
2023/04/15 01:05:33;;;;;;;16.50;7.30;;;;;;;6.56;100.00;100596.47;5222256;28;20029;-66
2023/04/15 01:08:05;;;;;;;13.25;7.05;;;;;;;6.53;100.00;100588.75;5226727;28;20656;-66
2023/04/15 01:10:37;;;;;;;22.50;7.85;;;;;;;6.43;100.00;100584.03;5223316;28;20455;-66
2023/04/15 01:13:08;;;;;;;13.10;7.00;;;;;;;6.38;100.00;100582.59;5224164;28;20029;-66
2023/04/15 01:15:40;;;;;;;13.65;6.90;;;;;;;6.34;100.00;100584.59;5229801;28;20025;-66
2023/04/15 01:18:12;;;;;;;13.32;6.57;;;;;;;6.32;100.00;100586.50;5225230;28;20072;-66
2023/04/15 01:20:43;;;;;;;14.18;7.25;;;;;;;6.37;100.00;100583.56;5223009;28;20033;-66
2023/04/15 01:23:16;;;;;;;11.63;6.85;;;;;;;6.27;100.00;100588.56;5230993;28;20055;-67
2023/04/15 01:25:49;;;;;;;12.88;6.97;;;;;;;6.20;100.00;100589.94;5230631;28;20038;-66
2023/04/15 01:28:20;;;;;;;16.33;7.78;;;;;;;6.16;100.00;100588.41;5230328;28;20025;-67
2023/04/15 01:31:06;;;;;;;12.60;7.20;;;;;;;6.14;100.00;100587.66;5220112;28;20029;-66
2023/04/15 01:33:39;;;;;;;13.75;7.30;;;;;;;6.03;100.00;100588.31;5225390;28;20036;-66
2023/04/15 01:36:10;;;;;;;12.60;7.72;;;;;;;6.11;100.00;100596.63;5227604;28;20060;-66
2023/04/15 01:38:41;;;;;;;13.20;6.80;;;;;;;6.04;100.00;100597.94;5224439;28;20430;-66
2023/04/15 01:41:13;;;;;;;12.57;7.30;;;;;;;6.01;100.00;100590.22;5225117;28;20376;-66
2023/04/15 01:43:45;;;;;;;13.15;6.90;;;;;;;6.05;100.00;100592.56;5224316;28;20431;-66
2023/04/15 01:46:16;;;;;;;15.00;7.20;;;;;;;6.01;100.00;100588.41;5224605;28;20034;-66
2023/04/15 01:48:47;;;;;;;12.98;7.22;;;;;;;6.14;100.00;100588.50;5225986;28;20034;-66
2023/04/15 01:51:19;;;;;;;11.52;6.72;;;;;;;6.09;100.00;100591.41;5224093;28;20037;-66
2023/04/15 01:53:51;;;;;;;13.65;7.28;;;;;;;6.01;100.00;100583.09;5223342;28;20033;-66
2023/04/15 01:56:25;;;;;;;12.68;7.00;;;;;;;5.97;100.00;100581.59;5226425;28;20434;-66
2023/04/15 01:58:56;;;;;;;13.90;7.43;;;;;;;5.92;100.00;100583.63;5222849;28;20099;-66
2023/04/15 02:01:28;;;;;;;10.63;6.93;;;;;;;5.87;100.00;100583.09;5221025;28;20064;-66
2023/04/15 02:03:59;;;;;;;13.57;7.78;;;;;;;5.86;100.00;100576.06;5221884;28;20204;-66
2023/04/15 02:06:31;;;;;;;13.20;7.63;;;;;;;5.85;100.00;100579.69;5224768;28;20076;-66
2023/04/15 02:09:03;;;;;;;12.57;7.32;;;;;;;5.90;100.00;100583.72;5226770;28;20064;-66
2023/04/15 02:11:36;;;;;;;16.23;7.68;;;;;;;5.77;100.00;100579.28;5226571;28;20025;-67
2023/04/15 02:14:08;;;;;;;16.60;7.68;;;;;;;5.74;100.00;100585.63;5223389;28;20030;-66
2023/04/15 02:16:40;;;;;;;15.18;7.97;;;;;;;5.76;100.00;100588.19;5224111;28;20029;-66
2023/04/15 02:19:11;;;;;;;14.40;8.25;;;;;;;5.77;100.00;100587.22;5222587;28;20032;-66
2023/04/15 02:21:42;;;;;;;15.10;7.82;;;;;;;5.70;100.00;100592.88;5223131;28;20063;-66
2023/04/15 02:24:14;;;;;;;14.65;7.68;;;;;;;5.70;100.00;100598.19;5224458;28;20013;-66
2023/04/15 02:26:45;;;;;;;14.40;8.32;;;;;;;5.61;100.00;100603.19;5223845;28;20470;-66
2023/04/15 02:29:17;;;;;;;13.13;8.20;;;;;;;5.58;100.00;100600.69;5225167;28;20025;-66
2023/04/15 02:31:48;;;;;;;12.20;8.35;;;;;;;5.54;100.00;100609.78;5225033;28;20434;-66
2023/04/15 02:34:20;;;;;;;10.73;7.75;;;;;;;5.58;100.00;100609.53;5237615;28;20027;-66
2023/04/15 02:36:56;;;;;;;10.77;7.93;;;;;;;5.56;100.00;100618.47;5224021;28;20393;-66
2023/04/15 02:39:27;;;;;;;15.25;8.95;;;;;;;5.57;100.00;100621.03;5224563;28;20041;-66
2023/04/15 02:41:59;;;;;;;12.63;8.30;;;;;;;5.44;100.00;100615.59;5221750;28;20656;-66
2023/04/15 02:44:32;;;;;;;12.05;8.35;;;;;;;5.48;100.00;100611.00;5220282;28;20025;-67
2023/04/15 02:47:05;;;;;;;14.00;8.40;;;;;;;5.43;100.00;100624.50;5224265;28;20017;-66
2023/04/15 02:49:37;;;;;;;14.45;8.35;;;;;;;5.41;100.00;100614.97;5223106;28;20033;-66
2023/04/15 02:52:08;;;;;;;13.75;8.43;;;;;;;5.32;100.00;100621.63;5222187;28;20040;-66
2023/04/15 02:54:40;;;;;;;14.55;9.15;;;;;;;5.29;100.00;100625.31;5223822;28;20035;-66
2023/04/15 02:57:11;;;;;;;15.63;8.45;;;;;;;5.25;100.00;100625.56;5223227;28;20026;-66
2023/04/15 02:59:43;;;;;;;12.18;8.05;;;;;;;5.23;100.00;100623.00;5224143;28;20029;-66
2023/04/15 03:02:14;;;;;;;15.02;9.20;;;;;;;5.23;100.00;100622.16;5224293;28;20029;-66
2023/04/15 03:04:46;;;;;;;12.60;8.35;;;;;;;5.22;100.00;100625.75;5225342;28;20025;-66
2023/04/15 03:07:18;;;;;;;15.68;9.05;;;;;;;5.18;100.00;100629.50;5224153;28;20052;-66
2023/04/15 03:09:50;;;;;;;13.85;8.43;;;;;;;5.20;100.00;100628.47;5229009;28;20040;-67
2023/04/15 03:12:21;;;;;;;16.10;8.95;;;;;;;5.16;100.00;100626.97;5226596;28;20092;-66
2023/04/15 03:14:53;;;;;;;14.85;8.70;;;;;;;5.16;100.00;100631.38;5223750;28;20412;-66
2023/04/15 03:17:24;;;;;;;17.58;8.73;;;;;;;5.19;100.00;100628.56;5224840;28;20083;-67
2023/04/15 03:19:56;;;;;;;13.88;8.27;;;;;;;5.07;100.00;100627.47;5236474;28;20083;-66
2023/04/15 03:22:27;;;;;;;14.32;8.43;;;;;;;5.02;100.00;100637.44;5230976;28;20038;-66
2023/04/15 03:24:59;;;;;;;15.75;8.80;;;;;;;5.02;100.00;100646.22;5229386;28;20544;-66
2023/04/15 03:27:31;;;;;;;14.45;8.85;;;;;;;4.93;100.00;100638.84;5226903;28;20430;-66
2023/04/15 03:30:02;;;;;;;13.27;8.60;;;;;;;4.97;100.00;100647.47;5228527;28;20025;-66
2023/04/15 03:32:33;;;;;;;15.07;9.05;;;;;;;4.92;100.00;100655.63;5224483;28;20017;-66
2023/04/15 03:35:05;;;;;;;12.38;8.70;;;;;;;4.94;100.00;100655.56;5227154;28;20422;-66
2023/04/15 03:37:36;;;;;;;11.88;8.68;;;;;;;4.84;100.00;100652.56;5229779;28;20107;-66
2023/04/15 03:40:08;;;;;;;14.32;9.27;;;;;;;4.81;100.00;100660.66;5223395;28;20116;-67
2023/04/15 03:42:40;;;;;;;17.55;9.68;;;;;;;4.83;100.00;100653.50;5223880;28;20033;-66
2023/04/15 03:45:11;;;;;;;14.45;9.20;;;;;;;4.74;100.00;100660.16;5226330;28;20047;-66
2023/04/15 03:47:43;;;;;;;13.60;8.82;;;;;;;4.81;100.00;100660.66;5230181;28;20033;-66
2023/04/15 03:50:14;;;;;;;17.60;9.50;;;;;;;4.77;100.00;100664.41;5234455;28;20029;-66
2023/04/15 03:52:45;;;;;;;13.90;10.00;;;;;;;4.76;100.00;100668.84;5232364;28;20036;-66
2023/04/15 03:55:17;;;;;;;18.77;9.45;;;;;;;4.68;100.00;100677.22;5229541;28;20029;-66
2023/04/15 03:57:48;;;;;;;15.65;10.23;;;;;;;4.70;100.00;100674.47;5227200;28;20391;-66
2023/04/15 04:00:20;;;;;;;14.70;9.60;;;;;;;4.60;100.00;100673.25;5227740;28;20053;-66
2023/04/15 04:02:51;;;;;;;14.82;10.30;;;;;;;4.60;100.00;100681.19;5228182;28;20419;-66
2023/04/15 04:05:23;;;;;;;16.73;10.35;;;;;;;4.61;100.00;100683.75;5230843;28;20135;-66
2023/04/15 04:07:54;;;;;;;16.77;10.70;;;;;;;4.57;100.00;100689.31;5227069;28;20104;-66
2023/04/15 04:10:26;;;;;;;14.52;9.77;;;;;;;4.54;100.00;100687.66;5227890;28;20030;-66
2023/04/15 04:12:57;;;;;;;15.43;10.50;;;;;;;4.46;100.00;100689.88;5226019;28;20065;-66
2023/04/15 04:15:28;;;;;;;15.07;10.30;;;;;;;4.43;100.00;100693.53;5229117;28;20391;-66
2023/04/15 04:18:00;;;;;;;18.27;10.68;;;;;;;4.47;100.00;100699.50;5229698;28;20025;-66
2023/04/15 04:20:32;;;;;;;16.67;10.63;;;;;;;4.43;100.00;100697.94;5227029;28;20033;-66
2023/04/15 04:23:03;;;;;;;15.50;10.57;;;;;;;4.39;100.00;100707.84;5227271;28;20029;-66
2023/04/15 04:25:35;;;;;;;17.65;11.10;;;;;;;4.48;100.00;100715.25;5229039;28;20055;-66
2023/04/15 04:28:06;;;;;;;15.55;10.93;;;;;;;4.38;100.00;100719.34;5223844;28;20022;-66
2023/04/15 04:30:38;;;;;;;16.30;10.48;;;;;;;4.42;100.00;100712.09;5237094;28;20021;-66
2023/04/15 04:33:10;;;;;;;14.27;11.00;;;;;;;4.41;100.00;100721.81;5239776;28;20033;-66
2023/04/15 04:35:41;;;;;;;15.57;10.57;;;;;;;4.34;100.00;100720.44;5228025;28;20029;-66
2023/04/15 04:38:13;;;;;;;17.38;11.20;;;;;;;4.36;100.00;100726.47;5229637;28;20068;-66
2023/04/15 04:40:44;;;;;;;15.20;10.48;;;;;;;4.32;100.00;100727.59;5226598;28;20427;-66
2023/04/15 04:43:16;;;;;;;15.95;11.70;;;;;;;4.36;100.00;100731.75;5226138;28;20053;-66
2023/04/15 04:45:47;;;;;;;16.38;11.43;;;;;;;4.35;100.00;100734.47;5234304;28;20025;-66
2023/04/15 04:48:19;;;;;;;17.23;11.35;;;;;;;4.37;100.00;100738.75;5231018;28;20692;-66
2023/04/15 04:50:50;;;;;;;16.02;11.00;;;;;;;4.32;100.00;100744.28;5231048;28;20041;-66
2023/04/15 04:53:21;;;;;;;15.27;10.57;;;;;;;4.37;100.00;100749.31;5234804;28;20053;-66
2023/04/15 04:55:53;;;;;;;15.02;10.57;;;;;;;4.41;100.00;100755.28;5227980;28;20060;-66
2023/04/15 04:58:24;;;;;;;18.40;11.38;;;;;;;4.36;100.00;100758.19;5227667;28;20030;-66
2023/04/15 05:00:56;;;;;;;18.63;11.77;;;;;;;4.34;100.00;100767.13;5227683;28;20048;-66
2023/04/15 05:03:27;;;;;;;16.65;11.98;;;;;;;4.38;100.00;100761.59;5224506;28;20108;-66
2023/04/15 05:05:59;;;;;;;16.38;10.80;;;;;;;4.38;100.00;100771.31;5227483;28;20910;-66
2023/04/15 05:08:31;;;;;;;16.10;10.82;;;;;;;4.38;100.00;100773.94;5223580;28;20173;-66
2023/04/15 05:11:02;;;;;;;16.98;12.48;;;;;;;4.37;100.00;100775.72;5234291;28;20045;-66
2023/04/15 05:13:37;;;;;;;15.70;10.60;;;;;;;4.38;100.00;100777.44;5224047;28;20087;-66
2023/04/15 05:16:08;;;;;;;17.02;11.63;;;;;;;4.42;100.00;100781.63;5236587;28;20025;-66
2023/04/15 05:18:40;;;;;;;16.42;11.50;;;;;;;4.46;100.00;100787.59;5228767;28;20387;-66
2023/04/15 05:21:11;;;;;;;18.77;11.45;;;;;;;4.54;100.00;100797.78;5223920;28;20040;-66
2023/04/15 05:23:42;;;;;;;15.93;11.52;;;;;;;4.50;100.00;100791.78;5226000;28;20368;-66
2023/04/15 05:26:14;;;;;;;17.15;12.32;;;;;;;4.54;100.00;100797.78;5226468;28;20433;-66
2023/04/15 05:28:46;;;;;;;17.48;11.65;;;;;;;4.53;100.00;100807.50;5231622;28;20084;-66
2023/04/15 05:31:18;;;;;;;18.27;11.57;;;;;;;4.50;100.00;100811.13;5225348;28;20030;-66
2023/04/15 05:33:49;;;;;;;16.05;11.70;;;;;;;4.56;100.00;100820.53;5226978;28;20617;-66
2023/04/15 05:36:21;;;;;;;19.10;11.73;;;;;;;4.56;100.00;100811.75;5232504;28;20394;-66
2023/04/15 05:38:52;;;;;;;19.23;12.38;;;;;;;4.65;100.00;100827.16;5239327;28;20464;-66
2023/04/15 05:41:23;;;;;;;14.73;11.60;;;;;;;4.59;100.00;100828.31;5231363;28;20296;-66
2023/04/15 05:43:55;;;;;;;19.00;11.80;;;;;;;4.63;100.00;100837.78;5233697;28;20071;-66
2023/04/15 05:46:26;;;;;;;17.95;12.00;;;;;;;4.68;100.00;100832.28;5233396;28;20014;-66
2023/04/15 05:48:58;;;;;;;16.95;12.27;;;;;;;4.70;100.00;100835.69;5228175;28;20101;-66
2023/04/15 05:51:29;;;;;;;18.92;12.57;;;;;;;4.66;100.00;100847.34;5227058;28;20032;-66
2023/04/15 05:54:01;;;;;;;17.55;11.90;;;;;;;4.67;100.00;100843.78;5241857;28;20036;-66
2023/04/15 05:56:32;;;;;;;15.50;12.00;;;;;;;4.75;100.00;100854.78;5220437;28;20022;-66
2023/04/15 05:59:04;;;;;;;15.55;12.07;;;;;;;4.78;100.00;100854.66;5230688;28;20021;-66
2023/04/15 06:01:35;;;;;;;18.65;12.63;;;;;;;4.85;100.00;100865.72;5230293;28;20053;-66
2023/04/15 06:04:06;;;;;;;17.45;12.02;;;;;;;4.78;100.00;100869.66;5228024;28;20080;-66
2023/04/15 06:06:38;;;;;;;16.13;12.10;;;;;;;4.81;100.00;100866.84;5229444;28;20384;-66
2023/04/15 06:09:10;;;;;;;19.23;12.82;;;;;;;4.82;100.00;100869.41;5224599;28;20555;-66
2023/04/15 06:11:41;;;;;;;18.42;12.95;;;;;;;4.85;100.00;100874.53;5225218;28;20033;-66
2023/04/15 06:14:12;;;;;;;16.95;12.93;;;;;;;4.89;100.00;100870.81;5223043;28;20038;-66
2023/04/15 06:16:44;;;;;;;17.77;12.73;;;;;;;4.95;100.00;100880.19;5227232;28;20025;-66
2023/04/15 06:19:15;;;;;;;17.13;12.52;;;;;;;5.02;100.00;100878.06;5223042;28;20367;-67
2023/04/15 06:21:47;;;;;;;17.48;12.80;;;;;;;5.05;100.00;100892.00;5222820;28;20415;-66
2023/04/15 06:24:18;;;;;;;17.85;13.18;;;;;;;5.14;100.00;100903.00;5225724;28;20379;-67
2023/04/15 06:26:50;;;;;;;19.05;12.88;;;;;;;5.18;100.00;100893.97;5221010;28;20574;-67
2023/04/15 06:29:21;;;;;;;21.05;14.00;;;;;;;5.25;100.00;100895.38;5225512;28;20025;-67
2023/04/15 06:31:52;;;;;;;19.38;13.38;;;;;;;5.38;100.00;100903.50;5224009;28;20033;-66
2023/04/15 06:34:24;;;;;;;16.92;12.27;;;;;;;5.41;100.00;100908.66;5228556;28;20484;-66
2023/04/15 06:36:56;;;;;;;18.20;12.30;;;;;;;5.47;100.00;100908.31;5228804;28;20024;-67
2023/04/15 06:39:27;;;;;;;20.52;12.73;;;;;;;5.54;100.00;100914.09;5229815;28;20029;-66
2023/04/15 06:41:58;;;;;;;16.60;12.45;;;;;;;5.58;100.00;100926.22;5224797;28;20025;-66
2023/04/15 06:44:30;;;;;;;15.60;11.68;;;;;;;5.67;100.00;100931.03;5221074;28;20399;-66
2023/04/15 06:47:02;;;;;;;15.00;11.52;;;;;;;5.78;100.00;100927.81;5225451;28;20021;-67
2023/04/15 06:49:34;;;;;;;17.58;12.40;;;;;;;5.85;100.00;100945.91;5233300;28;20033;-66
2023/04/15 06:52:05;;;;;;;14.52;12.15;;;;;;;5.93;100.00;100942.84;5238945;28;20033;-66
2023/04/15 06:54:37;;;;;;;16.27;12.90;;;;;;;5.97;100.00;100941.75;5234511;28;20033;-67
2023/04/15 06:57:08;;;;;;;16.40;13.00;;;;;;;6.11;100.00;100948.09;5228256;28;20533;-66
2023/04/15 06:59:40;;;;;;;17.58;12.00;;;;;;;6.14;100.00;100948.78;5221384;28;20021;-66
2023/04/15 07:02:13;;;;;;;16.30;11.60;;;;;;;6.21;100.00;100957.22;5224833;28;20056;-66
2023/04/15 07:04:44;;;;;;;15.90;11.60;;;;;;;6.34;100.00;100966.16;5233558;28;20144;-66
2023/04/15 07:07:16;;;;;;;13.90;11.10;;;;;;;6.40;100.00;100963.16;5235501;28;20100;-66
2023/04/15 07:09:47;;;;;;;17.85;11.23;;;;;;;6.52;100.00;100966.06;5230456;28;20446;-66
2023/04/15 07:12:19;;;;;;;18.05;12.00;;;;;;;6.61;100.00;100962.88;5232194;28;20028;-66
2023/04/15 07:14:51;;;;;;;16.40;11.50;;;;;;;6.68;100.00;100973.03;5228600;28;20037;-66
2023/04/15 07:17:22;;;;;;;13.48;11.10;;;;;;;6.76;100.00;100980.53;5234052;28;20032;-66
2023/04/15 07:19:53;;;;;;;15.63;11.30;;;;;;;6.91;100.00;100984.09;5229351;28;20025;-67
2023/04/15 07:22:25;;;;;;;14.82;11.88;;;;;;;7.03;100.00;100974.56;5240059;28;20025;-67
2023/04/15 07:24:56;;;;;;;16.90;12.13;;;;;;;7.16;100.00;100988.81;5228204;28;20159;-67
2023/04/15 07:27:28;;;;;;;16.17;11.02;;;;;;;7.31;100.00;100978.22;5246666;28;20104;-67
2023/04/15 07:29:59;;;;;;;16.90;11.70;;;;;;;7.43;100.00;100982.78;5241690;28;20051;-69
2023/04/15 07:32:31;;;;;;;16.52;12.13;;;;;;;7.50;100.00;100993.84;5238073;28;20051;-67
2023/04/15 07:35:02;;;;;;;16.05;11.52;;;;;;;7.64;100.00;100996.53;5245949;28;20376;-66
2023/04/15 07:37:34;;;;;;;16.40;12.45;;;;;;;7.83;100.00;101004.22;5224718;28;20072;-67
2023/04/15 07:40:07;;;;;;;15.13;11.55;;;;;;;7.82;100.00;101000.72;5235192;28;20025;-67
2023/04/15 07:42:39;;;;;;;16.02;12.20;;;;;;;8.01;100.00;101000.38;5232504;28;20978;-67
2023/04/15 07:45:11;;;;;;;16.13;11.60;;;;;;;8.21;100.00;101011.56;5223410;28;20044;-67
2023/04/15 07:47:43;;;;;;;16.33;11.70;;;;;;;8.37;100.00;101012.28;5233723;28;20025;-68
2023/04/15 07:50:15;;;;;;;15.07;10.82;;;;;;;8.42;100.00;101018.19;5245100;28;20452;-67
2023/04/15 07:52:47;;;;;;;13.20;10.18;;;;;;;8.55;100.00;101020.03;5230249;28;20029;-67
2023/04/15 07:55:21;;;;;;;14.07;9.68;;;;;;;8.63;100.00;101021.25;5223047;28;20059;-66
2023/04/15 07:57:54;;;;;;;12.43;8.82;;;;;;;8.75;100.00;101027.56;5233627;28;20422;-67
2023/04/15 08:00:25;;;;;;;11.40;8.43;;;;;;;8.92;100.00;101029.13;5228807;28;20463;-66
2023/04/15 08:02:58;;;;;;;11.63;8.10;;;;;;;9.01;100.00;101017.00;5233057;28;20041;-66
2023/04/15 08:05:29;;;;;;;12.18;8.30;;;;;;;9.17;100.00;101030.97;5233996;28;20029;-67
2023/04/15 08:08:01;;;;;;;12.38;8.65;;;;;;;9.25;100.00;101041.13;5244328;28;20506;-67
2023/04/15 08:10:32;;;;;;;10.38;8.20;;;;;;;9.34;100.00;101034.28;5217855;28;20034;-66
2023/04/15 08:13:03;;;;;;;11.30;8.27;;;;;;;9.49;100.00;101045.72;5228407;28;20132;-66
2023/04/15 08:15:35;;;;;;;10.93;8.07;;;;;;;9.58;100.00;101048.59;5231320;28;20415;-67
2023/04/15 08:18:06;;;;;;;14.45;8.15;;;;;;;9.68;100.00;101053.28;5237641;28;20092;-66
2023/04/15 08:20:38;;;;;;;10.55;7.75;;;;;;;9.72;100.00;101057.44;5239224;28;20057;-67
2023/04/15 08:23:09;;;;;;;10.57;7.00;;;;;;;9.82;100.00;101058.53;5240495;28;20029;-67
2023/04/15 08:25:41;;;;;;;10.15;6.90;;;;;;;9.83;100.00;101062.88;5237915;28;20029;-67
2023/04/15 08:28:12;;;;;;;9.88;6.53;;;;;;;9.92;100.00;101066.72;5234502;28;20024;-66
2023/04/15 08:30:44;;;;;;;9.32;6.45;;;;;;;10.04;100.00;101060.50;5233208;28;20129;-66
2023/04/15 08:33:15;;;;;;;11.52;6.90;;;;;;;10.18;100.00;101064.84;5237776;28;20078;-66
2023/04/15 08:35:48;;;;;;;8.57;7.03;;;;;;;10.19;100.00;101078.09;5246304;28;20028;-67
2023/04/15 08:38:19;;;;;;;11.05;7.85;;;;;;;10.20;100.00;101077.13;5235782;28;20025;-67
2023/04/15 08:40:51;;;;;;;12.80;7.72;;;;;;;10.35;100.00;101075.19;5236914;28;20033;-66
2023/04/15 08:43:29;;;;;;;10.57;7.45;;;;;;;10.49;100.00;101086.69;5234307;28;20503;-66
2023/04/15 08:46:01;;;;;;;9.15;6.90;;;;;;;10.62;100.00;101087.50;5238883;28;20028;-66
2023/04/15 08:48:34;;;;;;;8.52;6.28;;;;;;;10.73;100.00;101089.41;5226753;28;20033;-66
2023/04/15 08:51:06;;;;;;;9.07;6.37;;;;;;;10.76;100.00;101092.69;5227286;28;20495;-67
2023/04/15 08:53:37;;;;;;;8.05;5.13;;;;;;;10.75;100.00;101088.31;5236910;28;20051;-67
2023/04/15 08:56:11;;;;;;;8.90;5.13;;;;;;;10.91;100.00;101112.09;5230630;28;20021;-67
2023/04/15 08:58:43;;;;;;;8.93;4.90;;;;;;;10.97;100.00;101113.44;5235066;28;20112;-67
2023/04/15 09:01:16;;;;;;;11.80;4.93;;;;;;;10.99;100.00;101123.03;5234404;28;20041;-67
2023/04/15 09:03:49;;;;;;;8.13;5.28;;;;;;;11.25;100.00;101124.75;5242341;28;20045;-67
2023/04/15 09:06:21;;;;;;;8.23;4.82;;;;;;;11.23;100.00;101129.34;5232165;28;20120;-66
2023/04/15 09:08:53;;;;;;;7.07;3.95;;;;;;;11.32;100.00;101126.00;5241289;28;20057;-66
2023/04/15 09:11:25;;;;;;;6.72;3.85;;;;;;;11.38;100.00;101141.53;5236213;28;20027;-66
2023/04/15 09:13:56;;;;;;;7.10;4.00;;;;;;;11.37;100.00;101153.19;5236302;28;20350;-67
2023/04/15 09:16:28;;;;;;;7.75;3.78;;;;;;;11.40;100.00;101150.28;5241320;28;20037;-67
2023/04/15 09:18:59;;;;;;;7.03;4.00;;;;;;;11.39;100.00;101145.94;5232529;28;20036;-67
2023/04/15 09:21:31;;;;;;;7.03;4.40;;;;;;;11.42;100.00;101152.84;5235225;28;20041;-67
2023/04/15 09:24:02;;;;;;;7.32;5.00;;;;;;;11.43;100.00;101162.56;5231385;28;20029;-67
2023/04/15 09:26:35;;;;;;;7.53;4.40;;;;;;;11.39;100.00;101172.66;5233228;28;20021;-67
2023/04/15 09:29:09;;;;;;;8.00;4.03;;;;;;;11.42;100.00;101176.91;5236858;28;20104;-67
2023/04/15 09:31:42;;;;;;;5.53;4.15;;;;;;;11.40;100.00;101174.34;5237889;28;20609;-67
2023/04/15 09:34:13;;;;;;;5.68;4.28;;;;;;;11.56;100.00;101180.25;5232456;28;20169;-67
2023/04/15 09:36:45;;;;;;;7.95;4.57;;;;;;;11.60;100.00;101174.66;5239871;28;20037;-67
2023/04/15 09:39:16;;;;;;;6.90;4.65;;;;;;;11.56;100.00;101179.38;5241969;28;20180;-66
2023/04/15 09:42:06;;;;;;;7.75;4.00;;;;;;;11.64;100.00;101181.47;5223022;28;20017;-67
2023/04/15 09:44:38;;;;;;;7.38;3.90;;;;;;;11.77;100.00;101193.81;5232958;28;20487;-67
2023/04/15 09:47:26;;;;;;;6.05;3.90;;;;;;;11.77;100.00;101180.44;5226693;28;20087;-67
2023/04/15 09:49:59;;;;;;;6.60;4.32;;;;;;;11.81;100.00;101182.88;5221107;28;20059;-67
2023/04/15 09:52:30;;;;;;;8.00;4.35;;;;;;;12.01;100.00;101178.72;5222011;28;20045;-67
2023/04/15 09:55:03;;;;;;;5.85;4.05;;;;;;;12.03;100.00;101190.16;5235917;28;20033;-67
2023/04/15 09:57:35;;;;;;;4.28;3.00;;;;;;;12.06;100.00;101195.25;5233152;28;20044;-67
2023/04/15 10:00:10;;;;;;;5.35;3.47;;;;;;;11.99;100.00;101196.69;5242795;28;20053;-67
2023/04/15 10:02:42;;;;;;;4.95;3.08;;;;;;;11.99;100.00;101202.06;5223692;28;20746;-67
2023/04/15 10:05:16;;;;;;;5.18;3.75;;;;;;;12.02;100.00;101193.78;5219377;28;20025;-67
2023/04/15 10:07:48;;;;;;;;;;;;;;;12.17;100.00;101200.59;5237085;28;20150;-67
2023/04/15 10:10:20;;;;;;;6.82;3.72;;;;;;;12.03;100.00;101199.00;5232383;28;19944;-67
2023/04/15 10:12:53;;;;;;;5.75;3.35;;;;;;;12.08;100.00;101204.88;5228247;28;20128;-67
2023/04/15 10:15:27;;;;;;;8.07;3.78;;;;;;;12.19;100.00;101200.50;5237834;28;20132;-69
2023/04/15 10:18:00;;;;;;;6.90;3.97;;;;;;;12.16;100.00;101206.94;5230413;28;20103;-67
2023/04/15 10:20:32;;;;;;;5.10;3.70;;;;;;;12.19;100.00;101214.72;5233286;28;20034;-67
2023/04/15 10:23:05;;;;;;;4.75;3.40;;;;;;;12.21;100.00;101204.75;5223977;28;20064;-67
2023/04/15 10:25:37;;;;;;;6.38;3.88;;;;;;;12.24;100.00;101217.06;5242176;28;20060;-67
2023/04/15 10:28:09;;;;;;;8.80;4.10;;;;;;;12.23;100.00;101208.16;5240961;28;20029;-67
2023/04/15 10:30:42;;;;;;;5.63;3.72;;;;;;;12.25;100.00;101219.59;5233748;28;20480;-67
2023/04/15 10:33:15;;;;;;;4.82;2.80;;;;;;;12.31;100.00;101223.59;5228191;28;20559;-67
2023/04/15 10:35:49;;;;;;;5.53;3.45;;;;;;;12.27;100.00;101228.38;5227538;28;20388;-68
2023/04/15 10:38:37;;;;;;;4.63;2.42;;;;;;;12.36;100.00;101232.97;5230447;28;20017;-67
2023/04/15 10:41:26;;;;;;;4.55;2.53;;;;;;;12.34;100.00;101221.56;5240453;28;20112;-67
2023/04/15 10:44:03;;;;;;;5.47;3.00;;;;;;;12.32;100.00;101231.53;5235585;28;20167;-67
2023/04/15 10:46:39;;;;;;;4.55;2.90;;;;;;;12.33;100.00;101233.25;5230491;28;20029;-67
2023/04/15 10:49:13;;;;;;;4.00;2.70;;;;;;;12.26;100.00;101225.81;5231434;28;20064;-67
2023/04/15 10:51:50;;;;;;;4.97;3.10;;;;;;;12.37;100.00;101228.50;5227292;28;20049;-67
2023/04/15 10:54:24;;;;;;;4.45;2.75;;;;;;;12.47;100.00;101231.31;5231763;28;20025;-68
2023/04/15 10:57:22;;;;;;;4.93;2.90;;;;;;;12.52;100.00;101235.34;5237084;28;20124;-67
2023/04/15 11:00:12;;;;;;;6.53;2.92;;;;;;;12.59;100.00;101232.16;5228534;28;20046;-68
2023/04/15 11:02:56;;;;;;;4.82;2.70;;;;;;;12.63;100.00;101244.34;5246996;28;20071;-67
2023/04/15 11:05:50;;;;;;;4.30;2.60;;;;;;;12.69;100.00;101247.38;5233470;28;20422;-68
2023/04/15 11:08:58;;;;;;;3.90;2.60;;;;;;;12.59;100.00;101243.72;5223632;28;20025;-67
2023/04/15 11:12:04;;;;;;;5.03;2.72;;;;;;;12.66;100.00;101244.94;5220545;28;20080;-67
2023/04/15 11:14:40;;;;;;;5.05;2.58;;;;;;;12.71;100.00;101249.94;5231947;28;20025;-67
2023/04/15 11:17:12;;;;;;;4.68;2.60;;;;;;;12.77;100.00;101249.47;5234292;28;20029;-68
2023/04/15 11:19:43;;;;;;;3.60;2.13;;;;;;;12.91;100.00;101243.00;5238867;28;20131;-68
2023/04/15 11:22:14;;;;;;;5.10;2.45;;;;;;;12.92;100.00;101242.88;5231830;28;20033;-69
2023/04/15 11:24:50;;;;;;;4.68;2.60;;;;;;;13.02;100.00;101234.09;5223580;28;20028;-67
2023/04/15 11:27:22;;;;;;;4.68;3.10;;;;;;;13.09;100.00;101246.84;5234037;28;20033;-67
2023/04/15 11:29:54;;;;;;;4.38;3.03;;;;;;;13.02;100.00;101245.69;5233060;28;20182;-67
2023/04/15 11:32:25;;;;;;;3.92;2.63;;;;;;;13.06;100.00;101251.59;5233172;28;20138;-68
2023/04/15 11:34:57;;;;;;;4.97;2.97;;;;;;;13.10;100.00;101248.56;5232201;28;20033;-68
2023/04/15 11:37:29;;;;;;;3.92;2.50;;;;;;;13.13;100.00;101256.38;5231939;28;20891;-68
2023/04/15 11:40:02;;;;;;;4.68;2.45;;;;;;;13.21;100.00;101261.13;5226425;28;20084;-67